Time;durP1;ratioP1;P1;durP2;ratioP2;P2;SDS_P1;SDS_P2;PMS_P1;PMS_P2;Temp;Humidity;BMP_temperature;BMP_pressure;BME280_temperature;BME280_humidity;BME280_pressure;Samples;Min_cycle;Max_cycle;Signal;HPM_P1;HPM_P2
2023/08/29 00:03:22;;;;;;;9.88;6.10;;;;;;;-140.66;100.00;55571.53;5113731;28;20038;-69
2023/08/29 00:07:06;;;;;;;9.05;5.78;;;;;;;-140.66;100.00;55571.53;5113049;28;20023;-69
2023/08/29 00:10:57;;;;;;;7.32;5.20;;;;;;;-140.66;100.00;55571.53;5114300;28;20084;-68
2023/08/29 00:14:41;;;;;;;7.63;5.93;;;;;;;-140.66;100.00;55571.53;5115165;28;20028;-70
2023/08/29 00:18:25;;;;;;;9.40;5.70;;;;;;;-140.66;100.00;55571.53;5113182;28;20080;-69
2023/08/29 00:22:09;;;;;;;6.80;5.68;;;;;;;-140.66;100.00;55571.53;5113906;28;20020;-69
2023/08/29 00:25:53;;;;;;;14.75;6.15;;;;;;;-140.66;100.00;55571.53;5113912;28;20027;-69
2023/08/29 00:29:38;;;;;;;8.55;5.80;;;;;;;-140.66;100.00;55571.53;5113905;28;20032;-70
2023/08/29 00:33:22;;;;;;;7.72;5.93;;;;;;;-140.66;100.00;55571.53;5126739;28;20027;-69
2023/08/29 00:37:06;;;;;;;8.10;5.95;;;;;;;-140.66;100.00;55571.53;5113659;28;20073;-68
2023/08/29 00:40:50;;;;;;;7.53;5.43;;;;;;;-140.66;100.00;55571.53;5114430;28;20499;-69
2023/08/29 00:44:35;;;;;;;8.07;5.68;;;;;;;-140.66;100.00;55571.53;5126906;28;20383;-71
2023/08/29 00:48:19;;;;;;;8.13;5.80;;;;;;;-140.66;100.00;55571.53;5113035;28;20043;-69
2023/08/29 00:52:05;;;;;;;11.13;5.85;;;;;;;-140.66;100.00;55571.53;5113261;28;20066;-69
2023/08/29 00:55:49;;;;;;;10.55;6.00;;;;;;;-140.66;100.00;55571.53;5116417;28;20455;-70
2023/08/29 00:59:35;;;;;;;7.68;5.80;;;;;;;-140.66;100.00;55571.53;5118077;28;20082;-70
2023/08/29 01:03:19;;;;;;;7.75;5.50;;;;;;;-140.66;100.00;55571.53;5118368;28;20031;-69
2023/08/29 01:07:04;;;;;;;10.95;5.88;;;;;;;-140.66;100.00;55571.53;5117770;28;20065;-69
2023/08/29 01:10:51;;;;;;;6.57;5.47;;;;;;;-140.66;100.00;55571.53;5117113;28;20442;-69
2023/08/29 01:14:58;;;;;;;8.23;5.85;;;;;;;-140.66;100.00;55571.53;5117505;28;20027;-70
2023/08/29 01:18:55;;;;;;;6.57;5.50;;;;;;;-140.66;100.00;55571.53;5117316;28;20483;-69
2023/08/29 01:22:48;;;;;;;7.85;5.55;;;;;;;-140.66;100.00;55571.53;5118100;28;20051;-68
2023/08/29 01:26:36;;;;;;;7.43;5.68;;;;;;;-140.66;100.00;55571.53;5117174;28;20035;-69
2023/08/29 01:30:22;;;;;;;9.88;6.00;;;;;;;-140.66;100.00;55571.53;5117446;28;20023;-69
2023/08/29 01:34:06;;;;;;;11.05;6.18;;;;;;;-140.66;100.00;55571.53;5115584;28;20483;-69
2023/08/29 01:37:50;;;;;;;8.85;6.00;;;;;;;-140.66;100.00;55571.53;5117859;28;20023;-69
2023/08/29 01:41:35;;;;;;;7.05;5.63;;;;;;;-140.66;100.00;55571.53;5117216;28;20016;-69
2023/08/29 01:45:19;;;;;;;8.00;6.05;;;;;;;-140.66;100.00;55571.53;5115748;28;20050;-69
2023/08/29 01:49:04;;;;;;;7.70;5.63;;;;;;;-140.66;100.00;55571.53;5116624;28;20048;-69
2023/08/29 01:52:49;;;;;;;6.82;5.45;;;;;;;-140.66;100.00;55571.53;5117429;28;20361;-69
2023/08/29 01:56:35;;;;;;;9.80;5.90;;;;;;;-140.66;100.00;55571.53;5116349;28;20464;-69
2023/08/29 02:00:21;;;;;;;9.60;6.10;;;;;;;-140.66;100.00;55571.53;5115862;28;20027;-69
2023/08/29 02:04:05;;;;;;;8.68;6.15;;;;;;;-140.66;100.00;55571.53;5117362;28;20031;-69
2023/08/29 02:07:50;;;;;;;8.15;6.22;;;;;;;-140.66;100.00;55571.53;5115047;28;20461;-69
2023/08/29 02:11:34;;;;;;;8.10;6.25;;;;;;;-140.66;100.00;55571.53;5115662;28;20534;-69
2023/08/29 02:15:18;;;;;;;7.57;6.20;;;;;;;-140.66;100.00;55571.53;5115935;28;20111;-69
2023/08/29 02:19:03;;;;;;;9.50;6.60;;;;;;;-140.66;100.00;55571.53;5114964;28;20023;-69
2023/08/29 02:22:47;;;;;;;9.07;6.35;;;;;;;-140.66;100.00;55571.53;5116405;28;20396;-69
2023/08/29 02:26:31;;;;;;;7.93;6.07;;;;;;;-140.66;100.00;55571.53;5116249;28;20024;-69
2023/08/29 02:30:16;;;;;;;9.50;5.90;;;;;;;-140.66;100.00;55571.53;5116033;28;20066;-69
2023/08/29 02:34:00;;;;;;;8.68;6.30;;;;;;;-140.66;100.00;55571.53;5128954;27;20054;-69
2023/08/29 02:37:44;;;;;;;7.57;6.00;;;;;;;-140.66;100.00;55571.53;5115635;28;20024;-69
2023/08/29 02:41:30;;;;;;;14.00;6.43;;;;;;;-140.66;100.00;55571.53;5115337;28;20106;-68
2023/08/29 02:45:14;;;;;;;9.63;6.60;;;;;;;-140.66;100.00;55571.53;5114997;28;20035;-69
2023/08/29 02:48:59;;;;;;;10.02;6.07;;;;;;;-140.66;100.00;55571.53;5114329;28;20047;-68
2023/08/29 02:52:43;;;;;;;8.95;6.00;;;;;;;-140.66;100.00;55571.53;5115044;28;20119;-70
2023/08/29 02:56:27;;;;;;;9.23;6.50;;;;;;;-140.66;100.00;55571.53;5114749;28;20019;-69
2023/08/29 03:00:12;;;;;;;10.32;6.43;;;;;;;-140.66;100.00;55571.53;5116060;28;20050;-70
2023/08/29 03:03:56;;;;;;;11.68;6.60;;;;;;;-140.66;100.00;55571.53;5115703;28;20023;-70
2023/08/29 03:07:40;;;;;;;9.57;6.70;;;;;;;-140.66;100.00;55571.53;5115346;28;20028;-70
2023/08/29 03:11:25;;;;;;;13.43;6.97;;;;;;;-140.66;100.00;55571.53;5114854;28;20352;-70
2023/08/29 03:15:09;;;;;;;9.57;6.25;;;;;;;-140.66;100.00;55571.53;5114343;28;20027;-70
2023/08/29 03:18:53;;;;;;;9.90;7.10;;;;;;;-140.66;100.00;55571.53;5115662;28;20037;-70
2023/08/29 03:22:38;;;;;;;9.93;6.90;;;;;;;-140.66;100.00;55571.53;5114381;28;20080;-70
2023/08/29 03:26:22;;;;;;;11.18;6.75;;;;;;;-140.66;100.00;55571.53;5115396;28;20034;-70
2023/08/29 03:30:07;;;;;;;10.85;6.90;;;;;;;-140.66;100.00;55571.53;5114315;28;20032;-69
2023/08/29 03:33:51;;;;;;;10.60;6.57;;;;;;;-140.66;100.00;55571.53;5114211;28;20069;-71
2023/08/29 03:37:36;;;;;;;12.52;6.80;;;;;;;-140.66;100.00;55571.53;5113127;28;20030;-70
2023/08/29 03:41:20;;;;;;;8.80;6.95;;;;;;;-140.66;100.00;55571.53;5114691;28;20110;-69
2023/08/29 03:45:04;;;;;;;10.15;6.25;;;;;;;-140.66;100.00;55571.53;5115169;28;20027;-69
2023/08/29 03:48:48;;;;;;;11.27;6.57;;;;;;;-140.66;100.00;55571.53;5107458;28;20048;-69
2023/08/29 03:52:33;;;;;;;9.50;6.80;;;;;;;-140.66;100.00;55571.53;5115303;28;20111;-69
2023/08/29 03:56:17;;;;;;;10.50;6.90;;;;;;;-140.66;100.00;55571.53;5115236;28;20467;-69
2023/08/29 04:00:07;;;;;;;9.38;6.63;;;;;;;-140.66;100.00;55571.53;5113206;28;20035;-70
2023/08/29 04:03:51;;;;;;;10.75;6.85;;;;;;;-140.66;100.00;55571.53;5114213;28;20425;-70
2023/08/29 04:07:36;;;;;;;11.80;7.00;;;;;;;-140.66;100.00;55571.53;5114279;28;20032;-70
2023/08/29 04:11:20;;;;;;;12.20;6.93;;;;;;;-140.66;100.00;55571.53;5114350;28;20365;-70
2023/08/29 04:15:05;;;;;;;15.23;7.32;;;;;;;-140.66;100.00;55571.53;5113652;28;20058;-70
2023/08/29 04:18:49;;;;;;;19.80;7.63;;;;;;;-140.66;100.00;55571.53;5114890;28;20024;-70
2023/08/29 04:22:34;;;;;;;10.77;8.05;;;;;;;-140.66;100.00;55571.53;5113528;28;20107;-69
2023/08/29 04:26:18;;;;;;;10.73;7.28;;;;;;;-140.66;100.00;55571.53;5114613;28;20023;-69
2023/08/29 04:30:03;;;;;;;13.65;6.78;;;;;;;-140.66;100.00;55571.53;5116717;28;20106;-70
2023/08/29 04:33:48;;;;;;;13.95;6.43;;;;;;;-140.66;100.00;55571.53;5117575;28;20088;-70
2023/08/29 04:37:35;;;;;;;10.43;6.22;;;;;;;-140.66;100.00;55571.53;5117118;28;20027;-69
2023/08/29 04:41:19;;;;;;;15.85;7.20;;;;;;;-140.66;100.00;55571.53;5117728;28;20080;-69
2023/08/29 04:45:04;;;;;;;16.08;6.70;;;;;;;-140.66;100.00;55571.53;5117568;28;20023;-70
2023/08/29 04:48:48;;;;;;;10.88;7.13;;;;;;;-140.66;100.00;55571.53;5116916;28;20055;-70
2023/08/29 04:52:32;;;;;;;9.77;6.80;;;;;;;-140.66;100.00;55571.53;5117352;28;20024;-69
2023/08/29 04:56:17;;;;;;;15.48;7.95;;;;;;;-140.66;100.00;55571.53;5130970;27;20028;-69
2023/08/29 05:00:01;;;;;;;11.05;7.50;;;;;;;-140.66;100.00;55571.53;5116415;28;20034;-69
2023/08/29 05:03:45;;;;;;;16.73;6.55;;;;;;;-140.66;100.00;55571.53;5118074;28;20047;-69
2023/08/29 05:07:31;;;;;;;12.73;6.30;;;;;;;-140.66;100.00;55571.53;5118222;28;20030;-70
2023/08/29 05:11:15;;;;;;;12.70;6.22;;;;;;;-140.66;100.00;55571.53;5117267;28;20030;-69
2023/08/29 05:14:59;;;;;;;11.32;6.40;;;;;;;-140.66;100.00;55571.53;5118208;28;20024;-70
2023/08/29 05:18:44;;;;;;;17.63;6.88;;;;;;;-140.66;100.00;55571.53;5116559;28;20122;-68
2023/08/29 05:22:28;;;;;;;7.50;5.90;;;;;;;-140.66;100.00;55571.53;5118095;28;20084;-70
2023/08/29 05:26:12;;;;;;;20.75;7.43;;;;;;;-140.66;100.00;55571.53;5118001;28;20027;-70
2023/08/29 05:29:56;;;;;;;12.43;6.30;;;;;;;-140.66;100.00;55571.53;5116434;28;20164;-70
2023/08/29 05:33:40;;;;;;;8.07;6.25;;;;;;;-140.66;100.00;55571.53;5117768;28;20391;-71
2023/08/29 05:37:25;;;;;;;12.30;6.68;;;;;;;-140.66;100.00;55571.53;5129986;27;20028;-70
2023/08/29 05:41:09;;;;;;;12.02;6.85;;;;;;;-140.66;100.00;55571.53;5115838;28;20032;-69
2023/08/29 05:44:53;;;;;;;9.85;6.72;;;;;;;-140.66;100.00;55571.53;5117172;28;20019;-70
2023/08/29 05:48:37;;;;;;;11.48;6.78;;;;;;;-140.66;100.00;55571.53;5115882;28;20075;-69
2023/08/29 05:52:22;;;;;;;16.33;6.70;;;;;;;-140.66;100.00;55571.53;5116477;28;20381;-70
2023/08/29 05:56:06;;;;;;;14.57;6.70;;;;;;;-140.66;100.00;55571.53;5116528;28;20032;-70
2023/08/29 05:59:51;;;;;;;12.73;6.68;;;;;;;-140.66;100.00;55571.53;5114978;28;20106;-69
2023/08/29 06:03:36;;;;;;;9.35;6.45;;;;;;;-140.66;100.00;55571.53;5117354;28;20028;-69
2023/08/29 06:07:20;;;;;;;8.93;6.32;;;;;;;-140.66;100.00;55571.53;5115695;28;20019;-68
2023/08/29 06:11:06;;;;;;;8.75;6.00;;;;;;;-140.66;100.00;55571.53;5115956;28;20039;-70
2023/08/29 06:14:50;;;;;;;9.05;6.00;;;;;;;-140.66;100.00;55571.53;5115996;28;20031;-70
2023/08/29 06:18:35;;;;;;;14.05;6.78;;;;;;;-140.66;100.00;55571.53;5116288;28;20031;-70
2023/08/29 06:22:19;;;;;;;11.15;6.00;;;;;;;-140.66;100.00;55571.53;5117205;28;20156;-69
2023/08/29 06:26:04;;;;;;;12.07;6.60;;;;;;;-140.66;100.00;55571.53;5115523;28;20042;-70
2023/08/29 06:29:48;;;;;;;12.55;6.05;;;;;;;-140.66;100.00;55571.53;5114972;28;20027;-71
2023/08/29 06:33:34;;;;;;;8.60;5.90;;;;;;;-140.66;100.00;55571.53;5129482;27;20090;-70
2023/08/29 06:37:19;;;;;;;12.77;6.68;;;;;;;-140.66;100.00;55571.53;5115238;28;20042;-70
2023/08/29 06:41:04;;;;;;;11.55;6.28;;;;;;;-140.66;100.00;55571.53;5115175;28;20034;-70
2023/08/29 06:44:48;;;;;;;15.15;6.72;;;;;;;-140.66;100.00;55571.53;5115258;28;20027;-70
2023/08/29 06:48:33;;;;;;;13.57;6.50;;;;;;;-140.66;100.00;55571.53;5113968;28;20063;-70
2023/08/29 06:52:17;;;;;;;9.27;5.80;;;;;;;-140.66;100.00;55571.53;5115311;28;20070;-70
2023/08/29 06:56:01;;;;;;;16.42;6.47;;;;;;;-140.66;100.00;55571.53;5129055;27;20472;-70
2023/08/29 06:59:45;;;;;;;10.30;6.00;;;;;;;-140.66;100.00;55571.53;5114607;28;20063;-69
2023/08/29 07:03:29;;;;;;;14.15;6.28;;;;;;;-140.66;100.00;55571.53;5115424;28;20023;-70
2023/08/29 07:07:14;;;;;;;15.38;6.10;;;;;;;-140.66;100.00;55571.53;5114763;28;20023;-70
2023/08/29 07:10:58;;;;;;;12.80;5.97;;;;;;;-140.66;100.00;55571.53;5116669;28;20055;-69
2023/08/29 07:14:43;;;;;;;9.38;6.13;;;;;;;-140.66;100.00;55571.53;5114838;28;20066;-70
2023/08/29 07:18:27;;;;;;;10.07;5.88;;;;;;;-140.66;100.00;55571.53;5114552;28;20126;-69
2023/08/29 07:22:11;;;;;;;13.75;6.40;;;;;;;-140.66;100.00;55571.53;5115256;28;20118;-70
2023/08/29 07:25:55;;;;;;;12.73;6.10;;;;;;;-140.66;100.00;55571.53;5114487;28;20077;-70
2023/08/29 07:29:41;;;;;;;11.95;6.45;;;;;;;-140.66;100.00;55571.53;5114103;28;20024;-70
2023/08/29 07:33:25;;;;;;;14.43;6.13;;;;;;;-140.66;100.00;55571.53;5115029;28;20039;-70
2023/08/29 07:37:10;;;;;;;11.18;6.13;;;;;;;-140.66;100.00;55571.53;5113535;28;20023;-69
2023/08/29 07:40:56;;;;;;;18.55;6.28;;;;;;;-140.66;100.00;55571.53;5114182;28;20073;-69
2023/08/29 07:44:41;;;;;;;13.57;6.50;;;;;;;-140.66;100.00;55571.53;5114065;28;20035;-69
2023/08/29 07:48:25;;;;;;;10.80;6.10;;;;;;;-140.66;100.00;55571.53;5113127;28;20051;-70
2023/08/29 07:52:09;;;;;;;15.27;6.32;;;;;;;-140.66;100.00;55571.53;5114305;28;20160;-70
2023/08/29 07:55:54;;;;;;;7.75;6.00;;;;;;;-140.66;100.00;55571.53;5115108;28;20051;-70
2023/08/29 07:59:41;;;;;;;15.63;6.72;;;;;;;-140.66;100.00;55571.53;5114448;28;20371;-70
2023/08/29 08:03:25;;;;;;;11.60;5.93;;;;;;;-140.66;100.00;55571.53;5114279;28;20027;-71
2023/08/29 08:07:10;;;;;;;9.73;6.55;;;;;;;-140.66;100.00;55571.53;5115709;28;20024;-70
2023/08/29 08:10:56;;;;;;;12.98;6.15;;;;;;;-140.66;100.00;55571.53;5113018;28;20092;-70
2023/08/29 08:14:40;;;;;;;21.38;6.50;;;;;;;-140.66;100.00;55571.53;5114085;28;20020;-70
2023/08/29 08:18:25;;;;;;;14.95;6.65;;;;;;;-140.66;100.00;55571.53;5114812;28;20039;-71
2023/08/29 08:22:10;;;;;;;13.55;6.10;;;;;;;-140.66;100.00;55571.53;5114697;28;20031;-70
2023/08/29 08:25:54;;;;;;;16.27;6.53;;;;;;;-140.66;100.00;55571.53;5113943;28;20488;-70
2023/08/29 08:29:38;;;;;;;10.68;6.30;;;;;;;-140.66;100.00;55571.53;5114370;28;20028;-71
2023/08/29 08:33:24;;;;;;;15.63;6.55;;;;;;;-140.66;100.00;55571.53;5113512;28;20215;-71
2023/08/29 08:37:08;;;;;;;10.38;6.80;;;;;;;-140.66;100.00;55571.53;5114169;28;20357;-70
2023/08/29 08:40:56;;;;;;;12.75;6.82;;;;;;;-140.66;100.00;55571.53;5114457;28;20445;-70
2023/08/29 08:44:42;;;;;;;11.10;6.50;;;;;;;-140.66;100.00;55571.53;5114454;28;20032;-71
2023/08/29 08:48:26;;;;;;;10.18;6.82;;;;;;;-140.66;100.00;55571.53;5113386;28;20148;-70
2023/08/29 08:52:11;;;;;;;10.07;6.63;;;;;;;-140.66;100.00;55571.53;5113561;28;20023;-70
2023/08/29 08:55:56;;;;;;;19.75;6.60;;;;;;;-140.66;100.00;55571.53;5113627;28;20031;-71
2023/08/29 08:59:41;;;;;;;11.55;6.05;;;;;;;-140.66;100.00;55571.53;5112529;28;20063;-69
2023/08/29 09:03:26;;;;;;;10.32;5.90;;;;;;;-140.66;100.00;55571.53;5114088;28;20454;-70
2023/08/29 09:07:12;;;;;;;15.60;6.80;;;;;;;-140.66;100.00;55571.53;5114194;28;20460;-71
2023/08/29 09:11:04;;;;;;;14.15;5.68;;;;;;;-140.66;100.00;55571.53;5113816;28;20096;-71
2023/08/29 09:14:53;;;;;;;10.40;6.18;;;;;;;-140.66;100.00;55571.53;5113976;28;20115;-70
2023/08/29 09:18:42;;;;;;;12.00;6.20;;;;;;;-140.66;100.00;55571.53;5118090;28;20137;-70
2023/08/29 09:22:27;;;;;;;11.05;6.05;;;;;;;-140.66;100.00;55571.53;5116361;28;20020;-70
2023/08/29 09:26:12;;;;;;;14.65;5.75;;;;;;;-140.66;100.00;55571.53;5116614;28;20030;-70
2023/08/29 09:30:10;;;;;;;9.30;5.82;;;;;;;-140.66;100.00;55571.53;5115593;28;20036;-71
2023/08/29 09:34:04;;;;;;;8.20;5.47;;;;;;;-140.66;100.00;55571.53;5116685;28;20449;-69
2023/08/29 09:37:53;;;;;;;17.83;6.03;;;;;;;-140.66;100.00;55571.53;5116825;28;20454;-71
2023/08/29 09:41:56;;;;;;;23.10;6.65;;;;;;;-140.66;100.00;55571.53;5117449;28;20500;-71
2023/08/29 09:45:41;;;;;;;10.90;5.72;;;;;;;-140.66;100.00;55571.53;5115763;28;20059;-71
2023/08/29 09:49:51;;;;;;;12.52;5.60;;;;;;;-140.66;100.00;55571.53;5116722;28;20047;-70
2023/08/29 09:53:36;;;;;;;9.65;5.95;;;;;;;-140.66;100.00;55571.53;5116954;28;20110;-70
2023/08/29 09:57:25;;;;;;;12.95;5.78;;;;;;;-140.66;100.00;55571.53;5116946;28;20077;-71
2023/08/29 10:01:12;;;;;;;18.70;5.85;;;;;;;-140.66;100.00;55571.53;5117360;28;20023;-70
2023/08/29 10:05:05;;;;;;;9.55;5.78;;;;;;;-140.66;100.00;55571.53;5116807;28;20158;-71
2023/08/29 10:08:55;;;;;;;16.00;6.45;;;;;;;-140.66;100.00;55571.53;5115996;28;20033;-71
2023/08/29 10:12:41;;;;;;;9.85;5.50;;;;;;;-140.66;100.00;55571.53;5116868;28;20383;-70
2023/08/29 10:16:26;;;;;;;12.63;6.25;;;;;;;-140.66;100.00;55571.53;5115171;28;20039;-71
2023/08/29 10:20:12;;;;;;;8.05;5.72;;;;;;;-140.66;100.00;55571.53;5117202;28;20361;-70
2023/08/29 10:23:58;;;;;;;9.48;6.10;;;;;;;-140.66;100.00;55571.53;5115510;28;20035;-71
2023/08/29 10:27:43;;;;;;;10.18;6.32;;;;;;;-140.66;100.00;55571.53;5115225;28;20019;-71
2023/08/29 10:31:28;;;;;;;10.18;6.25;;;;;;;-140.66;100.00;55571.53;5114793;28;20176;-71
2023/08/29 10:35:25;;;;;;;11.80;6.75;;;;;;;-140.66;100.00;55571.53;5114735;28;20030;-70
2023/08/29 10:39:13;;;;;;;13.93;6.60;;;;;;;-140.66;100.00;55571.53;5115390;28;20031;-69
2023/08/29 10:42:59;;;;;;;14.15;6.30;;;;;;;-140.66;100.00;55571.53;5115045;28;20042;-70
2023/08/29 10:46:53;;;;;;;9.13;6.10;;;;;;;-140.66;100.00;55571.53;5114437;28;20034;-70
2023/08/29 10:50:48;;;;;;;10.07;6.07;;;;;;;-140.66;100.00;55571.53;5115061;28;20358;-70
2023/08/29 10:54:35;;;;;;;10.35;6.40;;;;;;;-140.66;100.00;55571.53;5114843;28;20031;-70
2023/08/29 10:58:31;;;;;;;8.85;6.88;;;;;;;-140.66;100.00;55571.53;5116630;28;20437;-70
2023/08/29 11:02:31;;;;;;;14.65;6.30;;;;;;;-140.66;100.00;55571.53;5114774;28;20023;-70
2023/08/29 11:06:19;;;;;;;14.02;5.88;;;;;;;-140.66;100.00;55571.53;5114599;28;20015;-70
2023/08/29 11:10:17;;;;;;;12.68;5.93;;;;;;;-140.66;100.00;55571.53;5115362;28;20024;-70
2023/08/29 11:14:03;;;;;;;13.60;6.78;;;;;;;-140.66;100.00;55571.53;5114124;28;20031;-69
2023/08/29 11:18:34;;;;;;;8.65;5.72;;;;;;;-140.66;100.00;55571.53;5113310;28;20024;-70
2023/08/29 11:22:19;;;;;;;7.57;5.20;;;;;;;-140.66;100.00;55571.53;5113617;28;20023;-69
2023/08/29 11:26:04;;;;;;;7.13;5.10;;;;;;;-140.66;100.00;55571.53;5115060;28;20023;-71
2023/08/29 11:29:48;;;;;;;9.25;4.90;;;;;;;-140.66;100.00;55571.53;5114774;28;20027;-71
2023/08/29 11:33:33;;;;;;;10.77;5.50;;;;;;;-140.66;100.00;55571.53;5113377;28;20441;-70
2023/08/29 11:37:18;;;;;;;8.55;5.05;;;;;;;-140.66;100.00;55571.53;5118234;28;20042;-70
2023/08/29 11:41:06;;;;;;;9.57;5.70;;;;;;;-140.66;100.00;55571.53;5115589;28;20033;-70
2023/08/29 11:44:52;;;;;;;8.30;5.05;;;;;;;-140.66;100.00;55571.53;5115180;28;20015;-71
2023/08/29 11:48:36;;;;;;;9.38;4.70;;;;;;;-140.66;100.00;55571.53;5115334;28;20047;-71
2023/08/29 11:52:21;;;;;;;9.32;5.22;;;;;;;-140.66;100.00;55571.53;5119446;28;20053;-70
2023/08/29 11:56:09;;;;;;;8.15;4.93;;;;;;;-140.66;100.00;55571.53;5116857;28;20023;-71
2023/08/29 11:59:53;;;;;;;11.20;5.05;;;;;;;-140.66;100.00;55571.53;5114353;28;20058;-70
2023/08/29 12:03:38;;;;;;;7.85;5.10;;;;;;;-140.66;100.00;55571.53;5117746;28;20503;-71
2023/08/29 12:07:24;;;;;;;9.93;5.18;;;;;;;-140.66;100.00;55571.53;5119706;28;20445;-70
2023/08/29 12:11:10;;;;;;;11.57;5.07;;;;;;;-140.66;100.00;55571.53;5120589;28;20028;-70
2023/08/29 12:14:58;;;;;;;13.25;5.10;;;;;;;-140.66;100.00;55571.53;5121149;28;20027;-70
2023/08/29 12:18:43;;;;;;;9.05;4.93;;;;;;;-140.66;100.00;55571.53;5118951;28;20450;-71
2023/08/29 12:22:31;;;;;;;7.63;4.80;;;;;;;-140.66;100.00;55571.53;5119238;28;20040;-70
2023/08/29 12:26:15;;;;;;;7.20;4.68;;;;;;;-140.66;100.00;55571.53;5117025;28;20024;-71
2023/08/29 12:29:59;;;;;;;7.18;4.80;;;;;;;-140.66;100.00;55571.53;5113870;28;20110;-70
2023/08/29 12:33:44;;;;;;;8.13;4.50;;;;;;;-140.66;100.00;55571.53;5113335;28;20474;-70
2023/08/29 12:37:28;;;;;;;10.32;5.03;;;;;;;-140.66;100.00;55571.53;5114205;28;20354;-70
2023/08/29 12:41:16;;;;;;;9.30;5.35;;;;;;;-140.66;100.00;55571.53;5126823;28;20028;-71
2023/08/29 12:45:01;;;;;;;10.45;4.70;;;;;;;-140.66;100.00;55571.53;5113243;28;20411;-71
2023/08/29 12:48:45;;;;;;;7.32;4.75;;;;;;;-140.66;100.00;55571.53;5112687;28;20055;-70
2023/08/29 12:52:29;;;;;;;8.50;4.68;;;;;;;-140.66;100.00;55571.53;5118056;28;20027;-69
2023/08/29 12:56:13;;;;;;;6.30;4.47;;;;;;;-140.66;100.00;55571.53;5116257;28;20039;-71
2023/08/29 12:59:58;;;;;;;11.63;4.88;;;;;;;-140.66;100.00;55571.53;5116864;28;20089;-71
2023/08/29 13:03:46;;;;;;;12.32;5.18;;;;;;;-140.66;100.00;55571.53;5117616;28;20369;-70
2023/08/29 13:07:31;;;;;;;11.10;4.45;;;;;;;-140.66;100.00;55571.53;5116866;28;20027;-69
2023/08/29 13:11:15;;;;;;;7.97;4.75;;;;;;;-140.66;100.00;55571.53;5117349;28;20115;-70
2023/08/29 13:14:59;;;;;;;6.78;4.50;;;;;;;-140.66;100.00;55571.53;5118085;28;20038;-70
2023/08/29 13:18:44;;;;;;;9.52;4.55;;;;;;;-140.66;100.00;55571.53;5116358;28;20036;-70
2023/08/29 13:22:28;;;;;;;11.70;4.55;;;;;;;-140.66;100.00;55571.53;5117964;28;20059;-70
2023/08/29 13:26:12;;;;;;;14.57;4.45;;;;;;;-140.66;100.00;55571.53;5116845;28;20034;-70
2023/08/29 13:29:56;;;;;;;12.85;4.28;;;;;;;-140.66;100.00;55571.53;5116574;28;20453;-71
2023/08/29 13:33:45;;;;;;;8.27;4.20;;;;;;;-140.66;100.00;55571.53;5117342;28;20394;-70
2023/08/29 13:37:29;;;;;;;8.52;4.28;;;;;;;-140.66;100.00;55571.53;5116039;28;20020;-70
2023/08/29 13:41:13;;;;;;;16.45;4.57;;;;;;;-140.66;100.00;55571.53;5116190;28;20042;-70
2023/08/29 13:44:58;;;;;;;10.35;4.53;;;;;;;-140.66;100.00;55571.53;5115956;28;20027;-70
2023/08/29 13:48:42;;;;;;;10.70;5.03;;;;;;;-140.66;100.00;55571.53;5115690;28;20078;-71
2023/08/29 13:52:26;;;;;;;7.57;4.40;;;;;;;-140.66;100.00;55571.53;5116080;28;20024;-70
2023/08/29 13:56:11;;;;;;;8.93;4.63;;;;;;;-140.66;100.00;55571.53;5116493;28;20038;-70
2023/08/29 13:59:55;;;;;;;8.32;4.45;;;;;;;-140.66;100.00;55571.53;5116369;28;20078;-69
2023/08/29 14:03:39;;;;;;;4.45;4.00;;;;;;;-140.66;100.00;55571.53;5116004;28;20365;-70
2023/08/29 14:07:23;;;;;;;9.23;4.47;;;;;;;-140.66;100.00;55571.53;5116426;28;20022;-71
2023/08/29 14:11:08;;;;;;;9.75;4.85;;;;;;;-140.66;100.00;55571.53;5116741;28;20024;-70
2023/08/29 14:14:52;;;;;;;11.25;4.20;;;;;;;-140.66;100.00;55571.53;5116700;28;20030;-70
2023/08/29 14:18:36;;;;;;;10.25;5.10;;;;;;;-140.66;100.00;55571.53;5115809;28;20509;-70
2023/08/29 14:22:20;;;;;;;8.80;4.65;;;;;;;-140.66;100.00;55571.53;5114909;28;20043;-70
2023/08/29 14:26:11;;;;;;;10.98;4.65;;;;;;;-140.66;100.00;55571.53;5115751;28;20458;-71
2023/08/29 14:29:55;;;;;;;14.93;5.80;;;;;;;-140.66;100.00;55571.53;5114775;28;20036;-70
2023/08/29 14:33:39;;;;;;;8.07;4.15;;;;;;;-140.66;100.00;55571.53;5115709;28;20034;-70
2023/08/29 14:37:24;;;;;;;10.80;4.47;;;;;;;-140.66;100.00;55571.53;5116164;28;20028;-68
2023/08/29 14:41:13;;;;;;;21.90;4.70;;;;;;;-140.66;100.00;55571.53;5115208;28;20031;-70
2023/08/29 14:44:59;;;;;;;9.90;4.43;;;;;;;-140.66;100.00;55571.53;5116430;28;20161;-71
2023/08/29 14:48:44;;;;;;;9.20;3.88;;;;;;;-140.66;100.00;55571.53;5115071;28;20048;-70
2023/08/29 14:52:28;;;;;;;13.57;4.60;;;;;;;-140.66;100.00;55571.53;5128062;27;20023;-70
2023/08/29 14:56:12;;;;;;;8.27;4.57;;;;;;;-140.66;100.00;55571.53;5115333;28;20468;-71
2023/08/29 14:59:57;;;;;;;13.52;4.90;;;;;;;-140.66;100.00;55571.53;5114913;28;20027;-71
2023/08/29 15:03:42;;;;;;;14.15;4.80;;;;;;;-140.66;100.00;55571.53;5115963;28;20107;-70
2023/08/29 15:07:26;;;;;;;8.45;3.95;;;;;;;-140.66;100.00;55571.53;5128296;27;20342;-70
2023/08/29 15:11:10;;;;;;;6.50;4.30;;;;;;;-140.66;100.00;55571.53;5114423;28;20104;-70
2023/08/29 15:14:55;;;;;;;13.77;4.78;;;;;;;-140.66;100.00;55571.53;5113580;28;20028;-70
2023/08/29 15:18:39;;;;;;;6.72;4.38;;;;;;;-140.66;100.00;55571.53;5113948;28;20042;-70
2023/08/29 15:22:23;;;;;;;4.80;4.03;;;;;;;-140.66;100.00;55571.53;5114835;28;20020;-70
2023/08/29 15:26:08;;;;;;;9.93;4.70;;;;;;;-140.66;100.00;55571.53;5115669;28;20028;-71
2023/08/29 15:29:52;;;;;;;9.18;4.45;;;;;;;-140.66;100.00;55571.53;5114614;28;20040;-70
2023/08/29 15:33:36;;;;;;;5.07;4.20;;;;;;;-140.66;100.00;55571.53;5114755;28;20023;-70
2023/08/29 15:37:24;;;;;;;7.85;4.13;;;;;;;-140.66;100.00;55571.53;5127529;27;20465;-71
2023/08/29 15:41:10;;;;;;;10.48;4.68;;;;;;;-140.66;100.00;55571.53;5114188;28;20027;-71
2023/08/29 15:44:54;;;;;;;7.57;4.90;;;;;;;-140.66;100.00;55571.53;5112814;28;20028;-70
2023/08/29 15:48:38;;;;;;;7.88;5.18;;;;;;;-140.66;100.00;55571.53;5114588;28;20046;-70
2023/08/29 15:52:22;;;;;;;11.07;4.90;;;;;;;-140.66;100.00;55571.53;5113747;28;20031;-71
2023/08/29 15:56:07;;;;;;;10.13;4.70;;;;;;;-140.66;100.00;55571.53;5114066;28;20023;-70
2023/08/29 15:59:51;;;;;;;20.75;5.55;;;;;;;-140.66;100.00;55571.53;5112616;28;20023;-71
2023/08/29 16:03:36;;;;;;;10.27;5.47;;;;;;;-140.66;100.00;55571.53;5114849;28;20046;-70
2023/08/29 16:07:20;;;;;;;11.80;5.78;;;;;;;-140.66;100.00;55571.53;5115209;28;20163;-70
2023/08/29 16:11:04;;;;;;;12.50;5.18;;;;;;;-140.66;100.00;55571.53;5114776;28;20030;-71
2023/08/29 16:14:49;;;;;;;8.88;5.10;;;;;;;-140.66;100.00;55571.53;5114505;28;20059;-71
2023/08/29 16:18:33;;;;;;;10.93;5.40;;;;;;;-140.66;100.00;55571.53;5113602;28;20023;-71
2023/08/29 16:22:17;;;;;;;13.25;5.50;;;;;;;-140.66;100.00;55571.53;5113116;28;20428;-71
2023/08/29 16:26:16;;;;;;;9.55;6.00;;;;;;;-140.66;100.00;55571.53;5129371;27;20027;-69
2023/08/29 16:30:00;;;;;;;13.30;6.25;;;;;;;-140.66;100.00;55571.53;5117797;28;20032;-70
2023/08/29 16:33:44;;;;;;;12.65;5.40;;;;;;;-140.66;100.00;55571.53;5118887;28;20031;-70
2023/08/29 16:37:28;;;;;;;7.80;5.57;;;;;;;-140.66;100.00;55571.53;5118548;28;20027;-71
2023/08/29 16:41:12;;;;;;;11.90;6.00;;;;;;;-140.66;100.00;55571.53;5117763;28;20024;-71
2023/08/29 16:44:57;;;;;;;9.85;6.07;;;;;;;-140.66;100.00;55571.53;5117536;28;20027;-71
2023/08/29 16:48:41;;;;;;;11.55;5.60;;;;;;;-140.66;100.00;55571.53;5117732;28;20469;-70
2023/08/29 16:52:27;;;;;;;12.77;6.10;;;;;;;-140.66;100.00;55571.53;5117531;28;20084;-70
2023/08/29 16:56:11;;;;;;;11.80;6.30;;;;;;;-140.66;100.00;55571.53;5116792;28;20100;-70
2023/08/29 16:59:57;;;;;;;15.35;6.35;;;;;;;-140.66;100.00;55571.53;5117238;28;20096;-70